sensor_id;sensor_type;location;lat;lon;timestamp;P1;durP1;ratioP1;P2;durP2;ratioP2
19891;SDS011;10108;50.142;8.724;2022-10-23T00:01:30;11.60;;;5.50;;
19891;SDS011;10108;50.142;8.724;2022-10-23T00:04:15;14.55;;;5.70;;
19891;SDS011;10108;50.142;8.724;2022-10-23T00:06:44;12.20;;;5.60;;
19891;SDS011;10108;50.142;8.724;2022-10-23T00:09:12;11.50;;;5.57;;
19891;SDS011;10108;50.142;8.724;2022-10-23T00:11:41;11.93;;;5.95;;
19891;SDS011;10108;50.142;8.724;2022-10-23T00:14:09;14.20;;;5.80;;
19891;SDS011;10108;50.142;8.724;2022-10-23T00:16:35;16.67;;;6.18;;
19891;SDS011;10108;50.142;8.724;2022-10-23T00:19:02;10.63;;;5.47;;
19891;SDS011;10108;50.142;8.724;2022-10-23T00:21:28;10.27;;;5.47;;
19891;SDS011;10108;50.142;8.724;2022-10-23T00:23:55;9.68;;;5.70;;
19891;SDS011;10108;50.142;8.724;2022-10-23T00:26:21;13.27;;;5.53;;
19891;SDS011;10108;50.142;8.724;2022-10-23T00:28:50;11.38;;;5.85;;
19891;SDS011;10108;50.142;8.724;2022-10-23T00:31:19;9.80;;;5.38;;
19891;SDS011;10108;50.142;8.724;2022-10-23T00:33:46;13.65;;;5.57;;
19891;SDS011;10108;50.142;8.724;2022-10-23T00:36:13;12.27;;;6.03;;
19891;SDS011;10108;50.142;8.724;2022-10-23T00:38:43;11.10;;;5.78;;
19891;SDS011;10108;50.142;8.724;2022-10-23T00:41:13;12.35;;;5.68;;
19891;SDS011;10108;50.142;8.724;2022-10-23T00:46:29;11.48;;;5.30;;
19891;SDS011;10108;50.142;8.724;2022-10-23T00:48:56;10.23;;;5.45;;
19891;SDS011;10108;50.142;8.724;2022-10-23T00:51:26;10.02;;;5.97;;
19891;SDS011;10108;50.142;8.724;2022-10-23T00:53:57;11.65;;;5.15;;
19891;SDS011;10108;50.142;8.724;2022-10-23T00:56:24;11.68;;;5.82;;
19891;SDS011;10108;50.142;8.724;2022-10-23T00:58:51;10.60;;;5.85;;
19891;SDS011;10108;50.142;8.724;2022-10-23T01:01:19;13.32;;;5.57;;
19891;SDS011;10108;50.142;8.724;2022-10-23T01:03:47;10.18;;;5.45;;
19891;SDS011;10108;50.142;8.724;2022-10-23T01:17:40;11.98;;;5.38;;
19891;SDS011;10108;50.142;8.724;2022-10-23T01:28:07;12.10;;;5.72;;
19891;SDS011;10108;50.142;8.724;2022-10-23T01:30:36;14.93;;;5.53;;
19891;SDS011;10108;50.142;8.724;2022-10-23T01:33:16;9.27;;;5.50;;
19891;SDS011;10108;50.142;8.724;2022-10-23T01:35:59;11.77;;;6.00;;
19891;SDS011;10108;50.142;8.724;2022-10-23T01:41:27;11.00;;;6.25;;
19891;SDS011;10108;50.142;8.724;2022-10-23T01:44:03;12.25;;;6.45;;
19891;SDS011;10108;50.142;8.724;2022-10-23T01:46:35;12.55;;;6.38;;
19891;SDS011;10108;50.142;8.724;2022-10-23T01:49:05;16.15;;;6.90;;
19891;SDS011;10108;50.142;8.724;2022-10-23T01:51:35;12.45;;;6.32;;
19891;SDS011;10108;50.142;8.724;2022-10-23T01:54:06;13.18;;;6.30;;
19891;SDS011;10108;50.142;8.724;2022-10-23T01:56:36;11.85;;;5.72;;
19891;SDS011;10108;50.142;8.724;2022-10-23T01:59:07;10.93;;;6.50;;
19891;SDS011;10108;50.142;8.724;2022-10-23T02:01:41;11.82;;;5.68;;
19891;SDS011;10108;50.142;8.724;2022-10-23T02:04:11;9.25;;;5.55;;
19891;SDS011;10108;50.142;8.724;2022-10-23T02:06:42;11.90;;;5.53;;
19891;SDS011;10108;50.142;8.724;2022-10-23T02:09:08;10.70;;;5.30;;
19891;SDS011;10108;50.142;8.724;2022-10-23T02:11:36;11.40;;;5.80;;
19891;SDS011;10108;50.142;8.724;2022-10-23T02:16:49;8.95;;;5.15;;
19891;SDS011;10108;50.142;8.724;2022-10-23T02:24:56;14.45;;;5.55;;
19891;SDS011;10108;50.142;8.724;2022-10-23T02:27:29;14.70;;;5.80;;
19891;SDS011;10108;50.142;8.724;2022-10-23T02:30:05;11.38;;;5.20;;
19891;SDS011;10108;50.142;8.724;2022-10-23T02:32:37;13.35;;;5.63;;
19891;SDS011;10108;50.142;8.724;2022-10-23T02:35:10;11.38;;;5.47;;
19891;SDS011;10108;50.142;8.724;2022-10-23T02:37:37;13.65;;;5.63;;
19891;SDS011;10108;50.142;8.724;2022-10-23T02:40:04;10.82;;;5.55;;
19891;SDS011;10108;50.142;8.724;2022-10-23T02:42:51;11.32;;;5.60;;
19891;SDS011;10108;50.142;8.724;2022-10-23T02:45:30;13.00;;;5.82;;
19891;SDS011;10108;50.142;8.724;2022-10-23T02:48:05;8.80;;;5.78;;
19891;SDS011;10108;50.142;8.724;2022-10-23T02:50:57;10.02;;;5.22;;
19891;SDS011;10108;50.142;8.724;2022-10-23T02:58:50;11.68;;;5.35;;
19891;SDS011;10108;50.142;8.724;2022-10-23T03:01:39;13.27;;;5.35;;
19891;SDS011;10108;50.142;8.724;2022-10-23T03:04:20;9.20;;;5.38;;
19891;SDS011;10108;50.142;8.724;2022-10-23T03:06:50;13.43;;;5.97;;
19891;SDS011;10108;50.142;8.724;2022-10-23T03:09:16;12.50;;;5.47;;
19891;SDS011;10108;50.142;8.724;2022-10-23T03:11:43;9.98;;;5.28;;
19891;SDS011;10108;50.142;8.724;2022-10-23T03:14:10;10.43;;;5.30;;
19891;SDS011;10108;50.142;8.724;2022-10-23T03:16:38;13.75;;;5.65;;
19891;SDS011;10108;50.142;8.724;2022-10-23T03:19:04;10.20;;;5.57;;
19891;SDS011;10108;50.142;8.724;2022-10-23T03:21:30;9.35;;;5.30;;
19891;SDS011;10108;50.142;8.724;2022-10-23T03:23:56;8.50;;;5.38;;
19891;SDS011;10108;50.142;8.724;2022-10-23T03:26:31;11.07;;;5.50;;
19891;SDS011;10108;50.142;8.724;2022-10-23T03:28:57;10.45;;;5.13;;
19891;SDS011;10108;50.142;8.724;2022-10-23T03:31:24;9.63;;;5.30;;
19891;SDS011;10108;50.142;8.724;2022-10-23T03:33:54;10.40;;;5.18;;
19891;SDS011;10108;50.142;8.724;2022-10-23T03:36:21;10.05;;;5.13;;
19891;SDS011;10108;50.142;8.724;2022-10-23T03:38:47;15.77;;;5.03;;
19891;SDS011;10108;50.142;8.724;2022-10-23T03:41:13;11.27;;;5.60;;
19891;SDS011;10108;50.142;8.724;2022-10-23T03:43:39;12.57;;;5.20;;
19891;SDS011;10108;50.142;8.724;2022-10-23T03:46:05;10.18;;;5.15;;
19891;SDS011;10108;50.142;8.724;2022-10-23T03:48:34;10.43;;;5.57;;
19891;SDS011;10108;50.142;8.724;2022-10-23T03:51:04;9.10;;;5.00;;
19891;SDS011;10108;50.142;8.724;2022-10-23T03:53:31;10.57;;;5.30;;
19891;SDS011;10108;50.142;8.724;2022-10-23T03:56:00;11.05;;;5.45;;
19891;SDS011;10108;50.142;8.724;2022-10-23T03:58:26;11.70;;;5.80;;
19891;SDS011;10108;50.142;8.724;2022-10-23T04:00:53;8.77;;;5.70;;
19891;SDS011;10108;50.142;8.724;2022-10-23T04:03:19;8.57;;;5.63;;
19891;SDS011;10108;50.142;8.724;2022-10-23T04:05:45;9.65;;;5.55;;
19891;SDS011;10108;50.142;8.724;2022-10-23T04:08:11;14.07;;;5.80;;
19891;SDS011;10108;50.142;8.724;2022-10-23T04:10:38;17.48;;;6.03;;
19891;SDS011;10108;50.142;8.724;2022-10-23T04:13:04;10.75;;;5.80;;
19891;SDS011;10108;50.142;8.724;2022-10-23T04:15:34;11.07;;;5.40;;
19891;SDS011;10108;50.142;8.724;2022-10-23T04:18:01;9.65;;;5.63;;
19891;SDS011;10108;50.142;8.724;2022-10-23T04:20:29;10.40;;;5.57;;
19891;SDS011;10108;50.142;8.724;2022-10-23T04:23:00;12.20;;;5.47;;
19891;SDS011;10108;50.142;8.724;2022-10-23T04:25:26;9.23;;;5.57;;
19891;SDS011;10108;50.142;8.724;2022-10-23T04:27:52;13.15;;;5.85;;
19891;SDS011;10108;50.142;8.724;2022-10-23T04:30:19;11.00;;;5.50;;
19891;SDS011;10108;50.142;8.724;2022-10-23T04:32:48;12.20;;;5.57;;
19891;SDS011;10108;50.142;8.724;2022-10-23T04:35:18;10.43;;;5.70;;
19891;SDS011;10108;50.142;8.724;2022-10-23T04:37:45;8.75;;;5.35;;
19891;SDS011;10108;50.142;8.724;2022-10-23T04:40:11;9.40;;;5.70;;
19891;SDS011;10108;50.142;8.724;2022-10-23T04:42:37;8.98;;;5.72;;
19891;SDS011;10108;50.142;8.724;2022-10-23T04:45:04;15.77;;;5.80;;
19891;SDS011;10108;50.142;8.724;2022-10-23T04:47:30;10.50;;;5.70;;
19891;SDS011;10108;50.142;8.724;2022-10-23T04:49:58;11.15;;;6.20;;
19891;SDS011;10108;50.142;8.724;2022-10-23T04:52:43;9.30;;;5.95;;
19891;SDS011;10108;50.142;8.724;2022-10-23T04:55:35;14.30;;;7.22;;
19891;SDS011;10108;50.142;8.724;2022-10-23T04:58:09;12.05;;;5.90;;
19891;SDS011;10108;50.142;8.724;2022-10-23T05:00:36;12.13;;;5.43;;
19891;SDS011;10108;50.142;8.724;2022-10-23T05:03:02;11.35;;;6.03;;
19891;SDS011;10108;50.142;8.724;2022-10-23T05:05:36;8.70;;;5.45;;
19891;SDS011;10108;50.142;8.724;2022-10-23T05:08:28;13.20;;;5.82;;
19891;SDS011;10108;50.142;8.724;2022-10-23T05:11:03;12.65;;;6.10;;
19891;SDS011;10108;50.142;8.724;2022-10-23T05:13:34;8.02;;;5.00;;
19891;SDS011;10108;50.142;8.724;2022-10-23T05:16:00;8.40;;;5.50;;
19891;SDS011;10108;50.142;8.724;2022-10-23T05:18:31;8.57;;;5.70;;
19891;SDS011;10108;50.142;8.724;2022-10-23T05:21:01;10.48;;;5.95;;
19891;SDS011;10108;50.142;8.724;2022-10-23T05:23:33;13.40;;;5.95;;
19891;SDS011;10108;50.142;8.724;2022-10-23T05:26:02;10.52;;;5.35;;
19891;SDS011;10108;50.142;8.724;2022-10-23T05:28:30;7.88;;;5.40;;
19891;SDS011;10108;50.142;8.724;2022-10-23T05:30:57;8.05;;;5.45;;
19891;SDS011;10108;50.142;8.724;2022-10-23T05:33:27;10.27;;;5.97;;
19891;SDS011;10108;50.142;8.724;2022-10-23T05:35:55;8.80;;;5.53;;
19891;SDS011;10108;50.142;8.724;2022-10-23T05:38:23;12.27;;;5.22;;
19891;SDS011;10108;50.142;8.724;2022-10-23T05:40:51;11.15;;;5.30;;
19891;SDS011;10108;50.142;8.724;2022-10-23T05:43:19;10.18;;;5.10;;
19891;SDS011;10108;50.142;8.724;2022-10-23T05:45:58;10.70;;;5.43;;
19891;SDS011;10108;50.142;8.724;2022-10-23T05:48:44;9.80;;;5.40;;
19891;SDS011;10108;50.142;8.724;2022-10-23T05:51:22;9.48;;;5.32;;
19891;SDS011;10108;50.142;8.724;2022-10-23T05:54:11;7.95;;;5.28;;
19891;SDS011;10108;50.142;8.724;2022-10-23T05:56:42;15.35;;;6.03;;
19891;SDS011;10108;50.142;8.724;2022-10-23T05:59:17;11.65;;;5.85;;
19891;SDS011;10108;50.142;8.724;2022-10-23T06:01:59;11.57;;;5.60;;
19891;SDS011;10108;50.142;8.724;2022-10-23T06:04:43;11.00;;;5.45;;
19891;SDS011;10108;50.142;8.724;2022-10-23T06:07:36;9.15;;;5.60;;
19891;SDS011;10108;50.142;8.724;2022-10-23T06:10:05;12.68;;;5.32;;
19891;SDS011;10108;50.142;8.724;2022-10-23T06:12:33;10.77;;;5.50;;
19891;SDS011;10108;50.142;8.724;2022-10-23T06:14:59;10.35;;;5.50;;
19891;SDS011;10108;50.142;8.724;2022-10-23T06:17:41;8.60;;;5.00;;
19891;SDS011;10108;50.142;8.724;2022-10-23T06:20:07;12.40;;;5.53;;
19891;SDS011;10108;50.142;8.724;2022-10-23T06:22:37;9.13;;;4.68;;
19891;SDS011;10108;50.142;8.724;2022-10-23T06:25:18;9.68;;;5.25;;
19891;SDS011;10108;50.142;8.724;2022-10-23T06:27:45;10.80;;;4.68;;
19891;SDS011;10108;50.142;8.724;2022-10-23T06:30:11;12.63;;;5.93;;
19891;SDS011;10108;50.142;8.724;2022-10-23T06:32:38;10.40;;;5.22;;
19891;SDS011;10108;50.142;8.724;2022-10-23T06:35:10;9.70;;;5.15;;
19891;SDS011;10108;50.142;8.724;2022-10-23T06:37:37;11.23;;;5.10;;
19891;SDS011;10108;50.142;8.724;2022-10-23T06:40:26;11.07;;;4.50;;
19891;SDS011;10108;50.142;8.724;2022-10-23T06:43:01;9.98;;;4.80;;
19891;SDS011;10108;50.142;8.724;2022-10-23T06:45:37;7.47;;;4.68;;
19891;SDS011;10108;50.142;8.724;2022-10-23T06:48:32;8.35;;;4.53;;
19891;SDS011;10108;50.142;8.724;2022-10-23T06:51:06;9.48;;;4.90;;
19891;SDS011;10108;50.142;8.724;2022-10-23T06:53:40;10.20;;;5.03;;
19891;SDS011;10108;50.142;8.724;2022-10-23T06:56:32;10.30;;;4.95;;
19891;SDS011;10108;50.142;8.724;2022-10-23T06:59:00;9.73;;;4.85;;
19891;SDS011;10108;50.142;8.724;2022-10-23T07:01:27;11.32;;;4.95;;
19891;SDS011;10108;50.142;8.724;2022-10-23T07:03:54;11.98;;;5.00;;
19891;SDS011;10108;50.142;8.724;2022-10-23T07:06:24;10.60;;;4.65;;
19891;SDS011;10108;50.142;8.724;2022-10-23T07:08:51;9.50;;;4.88;;
19891;SDS011;10108;50.142;8.724;2022-10-23T07:11:40;12.02;;;4.72;;
19891;SDS011;10108;50.142;8.724;2022-10-23T07:14:06;10.13;;;4.80;;
19891;SDS011;10108;50.142;8.724;2022-10-23T07:16:33;9.82;;;4.90;;
19891;SDS011;10108;50.142;8.724;2022-10-23T07:18:59;8.65;;;4.95;;
19891;SDS011;10108;50.142;8.724;2022-10-23T07:21:26;12.02;;;4.88;;
19891;SDS011;10108;50.142;8.724;2022-10-23T07:24:19;9.13;;;4.47;;
19891;SDS011;10108;50.142;8.724;2022-10-23T07:26:45;8.80;;;4.90;;
19891;SDS011;10108;50.142;8.724;2022-10-23T07:29:12;10.38;;;5.00;;
19891;SDS011;10108;50.142;8.724;2022-10-23T07:31:39;8.25;;;4.45;;
19891;SDS011;10108;50.142;8.724;2022-10-23T07:34:23;12.60;;;4.80;;
19891;SDS011;10108;50.142;8.724;2022-10-23T07:37:05;9.35;;;4.97;;
19891;SDS011;10108;50.142;8.724;2022-10-23T07:39:31;7.13;;;4.60;;
19891;SDS011;10108;50.142;8.724;2022-10-23T07:41:57;11.98;;;5.13;;
19891;SDS011;10108;50.142;8.724;2022-10-23T07:44:23;11.02;;;5.43;;
19891;SDS011;10108;50.142;8.724;2022-10-23T07:46:49;10.80;;;5.60;;
19891;SDS011;10108;50.142;8.724;2022-10-23T07:49:16;11.02;;;5.35;;
19891;SDS011;10108;50.142;8.724;2022-10-23T07:51:43;13.38;;;5.53;;
19891;SDS011;10108;50.142;8.724;2022-10-23T07:54:10;11.45;;;5.40;;
19891;SDS011;10108;50.142;8.724;2022-10-23T07:57:15;7.18;;;4.90;;
19891;SDS011;10108;50.142;8.724;2022-10-23T07:59:45;13.90;;;5.20;;
19891;SDS011;10108;50.142;8.724;2022-10-23T08:02:13;10.27;;;4.90;;
19891;SDS011;10108;50.142;8.724;2022-10-23T08:04:41;13.10;;;5.25;;
19891;SDS011;10108;50.142;8.724;2022-10-23T08:07:20;11.23;;;5.00;;
19891;SDS011;10108;50.142;8.724;2022-10-23T08:09:48;9.30;;;4.97;;
19891;SDS011;10108;50.142;8.724;2022-10-23T08:12:15;11.55;;;4.68;;
19891;SDS011;10108;50.142;8.724;2022-10-23T08:14:41;10.55;;;4.90;;
19891;SDS011;10108;50.142;8.724;2022-10-23T08:17:07;8.55;;;4.45;;
19891;SDS011;10108;50.142;8.724;2022-10-23T08:19:52;11.80;;;4.80;;
19891;SDS011;10108;50.142;8.724;2022-10-23T08:22:19;10.45;;;5.20;;
19891;SDS011;10108;50.142;8.724;2022-10-23T08:24:46;12.50;;;5.13;;
19891;SDS011;10108;50.142;8.724;2022-10-23T08:27:12;12.98;;;4.95;;
19891;SDS011;10108;50.142;8.724;2022-10-23T08:29:43;12.93;;;5.30;;
19891;SDS011;10108;50.142;8.724;2022-10-23T08:32:09;10.18;;;4.53;;
19891;SDS011;10108;50.142;8.724;2022-10-23T08:34:46;15.15;;;5.20;;
19891;SDS011;10108;50.142;8.724;2022-10-23T08:37:13;10.85;;;4.90;;
19891;SDS011;10108;50.142;8.724;2022-10-23T08:39:39;9.15;;;4.53;;
19891;SDS011;10108;50.142;8.724;2022-10-23T08:42:22;14.63;;;5.15;;
19891;SDS011;10108;50.142;8.724;2022-10-23T08:45:15;9.60;;;5.20;;
19891;SDS011;10108;50.142;8.724;2022-10-23T08:51:18;10.63;;;5.10;;
19891;SDS011;10108;50.142;8.724;2022-10-23T08:56:31;10.68;;;5.18;;
19891;SDS011;10108;50.142;8.724;2022-10-23T08:59:03;9.57;;;4.78;;
19891;SDS011;10108;50.142;8.724;2022-10-23T09:01:40;9.73;;;5.00;;
19891;SDS011;10108;50.142;8.724;2022-10-23T09:04:10;12.70;;;4.72;;
19891;SDS011;10108;50.142;8.724;2022-10-23T09:06:39;10.57;;;5.30;;
19891;SDS011;10108;50.142;8.724;2022-10-23T09:11:59;11.70;;;5.47;;
19891;SDS011;10108;50.142;8.724;2022-10-23T09:14:34;11.82;;;5.53;;
19891;SDS011;10108;50.142;8.724;2022-10-23T09:17:15;8.70;;;5.00;;
19891;SDS011;10108;50.142;8.724;2022-10-23T09:19:45;16.15;;;5.50;;
19891;SDS011;10108;50.142;8.724;2022-10-23T09:22:11;8.82;;;4.85;;
19891;SDS011;10108;50.142;8.724;2022-10-23T09:24:41;9.02;;;4.50;;
19891;SDS011;10108;50.142;8.724;2022-10-23T09:27:09;10.63;;;5.00;;
19891;SDS011;10108;50.142;8.724;2022-10-23T09:29:45;9.82;;;5.15;;
19891;SDS011;10108;50.142;8.724;2022-10-23T09:32:13;13.20;;;5.72;;
19891;SDS011;10108;50.142;8.724;2022-10-23T09:34:48;13.07;;;5.80;;
19891;SDS011;10108;50.142;8.724;2022-10-23T09:39:48;10.00;;;5.00;;
19891;SDS011;10108;50.142;8.724;2022-10-23T09:42:25;10.18;;;5.18;;
19891;SDS011;10108;50.142;8.724;2022-10-23T09:44:52;8.70;;;4.90;;
19891;SDS011;10108;50.142;8.724;2022-10-23T09:47:21;8.20;;;4.82;;
19891;SDS011;10108;50.142;8.724;2022-10-23T09:49:50;8.35;;;5.07;;
19891;SDS011;10108;50.142;8.724;2022-10-23T09:52:24;10.70;;;5.00;;
19891;SDS011;10108;50.142;8.724;2022-10-23T09:55:01;12.63;;;5.60;;
19891;SDS011;10108;50.142;8.724;2022-10-23T09:57:40;8.85;;;4.95;;
19891;SDS011;10108;50.142;8.724;2022-10-23T10:00:19;9.77;;;5.10;;
19891;SDS011;10108;50.142;8.724;2022-10-23T10:02:59;9.48;;;4.75;;
19891;SDS011;10108;50.142;8.724;2022-10-23T10:05:55;7.25;;;4.45;;
19891;SDS011;10108;50.142;8.724;2022-10-23T10:08:43;9.05;;;4.47;;
19891;SDS011;10108;50.142;8.724;2022-10-23T10:22:07;12.73;;;5.20;;
19891;SDS011;10108;50.142;8.724;2022-10-23T10:24:45;7.85;;;4.20;;
19891;SDS011;10108;50.142;8.724;2022-10-23T10:35:33;7.85;;;4.53;;
19891;SDS011;10108;50.142;8.724;2022-10-23T10:40:37;9.82;;;4.80;;
19891;SDS011;10108;50.142;8.724;2022-10-23T10:46:05;11.98;;;4.40;;
19891;SDS011;10108;50.142;8.724;2022-10-23T10:49:19;9.18;;;4.60;;
19891;SDS011;10108;50.142;8.724;2022-10-23T10:51:53;8.25;;;5.03;;
19891;SDS011;10108;50.142;8.724;2022-10-23T10:54:46;10.73;;;5.15;;
19891;SDS011;10108;50.142;8.724;2022-10-23T10:57:27;11.43;;;4.90;;
19891;SDS011;10108;50.142;8.724;2022-10-23T11:00:19;11.63;;;4.90;;
19891;SDS011;10108;50.142;8.724;2022-10-23T11:05:46;9.07;;;4.82;;
19891;SDS011;10108;50.142;8.724;2022-10-23T11:10:48;8.07;;;4.60;;
19891;SDS011;10108;50.142;8.724;2022-10-23T11:16:03;7.75;;;4.40;;
19891;SDS011;10108;50.142;8.724;2022-10-23T11:18:36;10.52;;;4.95;;
19891;SDS011;10108;50.142;8.724;2022-10-23T11:30:03;7.18;;;4.40;;
19891;SDS011;10108;50.142;8.724;2022-10-23T11:35:09;9.20;;;4.65;;
19891;SDS011;10108;50.142;8.724;2022-10-23T11:37:58;9.77;;;4.63;;
19891;SDS011;10108;50.142;8.724;2022-10-23T11:41:24;10.15;;;4.95;;
19891;SDS011;10108;50.142;8.724;2022-10-23T11:43:50;10.75;;;4.72;;
19891;SDS011;10108;50.142;8.724;2022-10-23T11:46:36;9.63;;;4.85;;
19891;SDS011;10108;50.142;8.724;2022-10-23T11:49:04;10.45;;;5.07;;
19891;SDS011;10108;50.142;8.724;2022-10-23T11:51:43;10.02;;;4.70;;
19891;SDS011;10108;50.142;8.724;2022-10-23T11:59:29;10.63;;;4.82;;
19891;SDS011;10108;50.142;8.724;2022-10-23T12:01:59;9.25;;;5.53;;
19891;SDS011;10108;50.142;8.724;2022-10-23T12:04:37;7.90;;;4.90;;
19891;SDS011;10108;50.142;8.724;2022-10-23T12:10:04;8.93;;;5.15;;
19891;SDS011;10108;50.142;8.724;2022-10-23T12:12:57;8.82;;;5.20;;
19891;SDS011;10108;50.142;8.724;2022-10-23T12:15:29;8.95;;;5.28;;
19891;SDS011;10108;50.142;8.724;2022-10-23T12:18:15;9.48;;;5.07;;
19891;SDS011;10108;50.142;8.724;2022-10-23T12:20:50;10.32;;;4.70;;
19891;SDS011;10108;50.142;8.724;2022-10-23T12:31:13;9.77;;;4.97;;
19891;SDS011;10108;50.142;8.724;2022-10-23T12:38:51;10.40;;;5.35;;
19891;SDS011;10108;50.142;8.724;2022-10-23T12:41:26;9.20;;;4.90;;
19891;SDS011;10108;50.142;8.724;2022-10-23T12:43:57;8.80;;;5.00;;
19891;SDS011;10108;50.142;8.724;2022-10-23T12:48:58;7.93;;;4.53;;
19891;SDS011;10108;50.142;8.724;2022-10-23T12:51:27;8.60;;;5.00;;
19891;SDS011;10108;50.142;8.724;2022-10-23T12:53:55;9.10;;;5.20;;
19891;SDS011;10108;50.142;8.724;2022-10-23T12:56:21;8.23;;;4.60;;
19891;SDS011;10108;50.142;8.724;2022-10-23T12:58:50;10.10;;;4.75;;
19891;SDS011;10108;50.142;8.724;2022-10-23T13:01:22;6.88;;;4.53;;
19891;SDS011;10108;50.142;8.724;2022-10-23T13:03:49;8.82;;;4.75;;
19891;SDS011;10108;50.142;8.724;2022-10-23T13:06:16;8.35;;;4.68;;
19891;SDS011;10108;50.142;8.724;2022-10-23T13:08:43;10.20;;;4.60;;
19891;SDS011;10108;50.142;8.724;2022-10-23T13:11:27;6.40;;;4.28;;
19891;SDS011;10108;50.142;8.724;2022-10-23T13:13:57;7.00;;;4.80;;
19891;SDS011;10108;50.142;8.724;2022-10-23T13:16:24;9.48;;;5.03;;
19891;SDS011;10108;50.142;8.724;2022-10-23T13:18:51;7.43;;;4.70;;
19891;SDS011;10108;50.142;8.724;2022-10-23T13:21:19;7.47;;;4.30;;
19891;SDS011;10108;50.142;8.724;2022-10-23T13:23:50;7.78;;;4.63;;
19891;SDS011;10108;50.142;8.724;2022-10-23T13:29:21;8.15;;;4.32;;
19891;SDS011;10108;50.142;8.724;2022-10-23T13:31:51;7.70;;;4.60;;
19891;SDS011;10108;50.142;8.724;2022-10-23T13:34:20;6.93;;;4.32;;
19891;SDS011;10108;50.142;8.724;2022-10-23T13:36:53;7.10;;;4.10;;
19891;SDS011;10108;50.142;8.724;2022-10-23T13:39:23;8.60;;;4.22;;
19891;SDS011;10108;50.142;8.724;2022-10-23T13:41:51;6.10;;;4.03;;
19891;SDS011;10108;50.142;8.724;2022-10-23T13:44:19;7.57;;;4.50;;
19891;SDS011;10108;50.142;8.724;2022-10-23T13:46:47;6.93;;;4.55;;
19891;SDS011;10108;50.142;8.724;2022-10-23T13:49:13;7.57;;;4.50;;
19891;SDS011;10108;50.142;8.724;2022-10-23T13:51:41;8.85;;;4.93;;
19891;SDS011;10108;50.142;8.724;2022-10-23T13:54:20;7.90;;;4.78;;
19891;SDS011;10108;50.142;8.724;2022-10-23T13:56:52;8.07;;;4.85;;
19891;SDS011;10108;50.142;8.724;2022-10-23T13:59:19;9.45;;;5.22;;
19891;SDS011;10108;50.142;8.724;2022-10-23T14:01:46;7.72;;;4.65;;
19891;SDS011;10108;50.142;8.724;2022-10-23T14:04:13;9.52;;;5.10;;
19891;SDS011;10108;50.142;8.724;2022-10-23T14:06:41;8.15;;;4.80;;
19891;SDS011;10108;50.142;8.724;2022-10-23T14:09:14;7.05;;;4.40;;
19891;SDS011;10108;50.142;8.724;2022-10-23T14:11:42;8.77;;;5.10;;
19891;SDS011;10108;50.142;8.724;2022-10-23T14:14:09;7.43;;;4.90;;
19891;SDS011;10108;50.142;8.724;2022-10-23T14:16:35;10.77;;;5.50;;
19891;SDS011;10108;50.142;8.724;2022-10-23T14:19:02;12.43;;;5.90;;
19891;SDS011;10108;50.142;8.724;2022-10-23T14:21:28;9.20;;;5.15;;
19891;SDS011;10108;50.142;8.724;2022-10-23T14:23:54;8.32;;;5.00;;
19891;SDS011;10108;50.142;8.724;2022-10-23T14:26:22;10.32;;;4.93;;
19891;SDS011;10108;50.142;8.724;2022-10-23T14:28:53;9.00;;;4.85;;
19891;SDS011;10108;50.142;8.724;2022-10-23T14:31:20;9.40;;;4.80;;
19891;SDS011;10108;50.142;8.724;2022-10-23T14:33:50;10.00;;;5.22;;
19891;SDS011;10108;50.142;8.724;2022-10-23T14:36:26;9.60;;;5.15;;
19891;SDS011;10108;50.142;8.724;2022-10-23T14:38:53;9.20;;;4.97;;
19891;SDS011;10108;50.142;8.724;2022-10-23T14:41:23;9.50;;;5.32;;
19891;SDS011;10108;50.142;8.724;2022-10-23T14:43:50;15.18;;;6.05;;
19891;SDS011;10108;50.142;8.724;2022-10-23T14:46:19;16.75;;;6.40;;
19891;SDS011;10108;50.142;8.724;2022-10-23T14:48:47;11.77;;;5.97;;
19891;SDS011;10108;50.142;8.724;2022-10-23T14:51:14;10.40;;;5.28;;
19891;SDS011;10108;50.142;8.724;2022-10-23T14:53:55;11.48;;;5.20;;
19891;SDS011;10108;50.142;8.724;2022-10-23T14:56:27;10.73;;;5.75;;
19891;SDS011;10108;50.142;8.724;2022-10-23T14:58:55;8.98;;;5.15;;
19891;SDS011;10108;50.142;8.724;2022-10-23T15:01:27;10.13;;;5.05;;
19891;SDS011;10108;50.142;8.724;2022-10-23T15:03:58;9.05;;;4.85;;
19891;SDS011;10108;50.142;8.724;2022-10-23T15:06:24;9.00;;;4.72;;
19891;SDS011;10108;50.142;8.724;2022-10-23T15:08:51;9.38;;;5.00;;
19891;SDS011;10108;50.142;8.724;2022-10-23T15:11:21;7.97;;;4.88;;
19891;SDS011;10108;50.142;8.724;2022-10-23T15:13:48;9.32;;;4.88;;
19891;SDS011;10108;50.142;8.724;2022-10-23T15:16:15;7.68;;;4.63;;
19891;SDS011;10108;50.142;8.724;2022-10-23T15:18:41;9.18;;;4.95;;
19891;SDS011;10108;50.142;8.724;2022-10-23T15:21:08;7.03;;;4.30;;
19891;SDS011;10108;50.142;8.724;2022-10-23T15:23:35;9.13;;;4.88;;
19891;SDS011;10108;50.142;8.724;2022-10-23T15:26:04;7.25;;;4.43;;
19891;SDS011;10108;50.142;8.724;2022-10-23T15:28:33;7.47;;;5.07;;
19891;SDS011;10108;50.142;8.724;2022-10-23T15:30:59;10.80;;;5.00;;
19891;SDS011;10108;50.142;8.724;2022-10-23T15:33:26;6.68;;;4.53;;
19891;SDS011;10108;50.142;8.724;2022-10-23T15:35:53;9.07;;;4.63;;
19891;SDS011;10108;50.142;8.724;2022-10-23T15:38:20;9.13;;;4.80;;
19891;SDS011;10108;50.142;8.724;2022-10-23T15:40:47;6.32;;;4.70;;
19891;SDS011;10108;50.142;8.724;2022-10-23T15:43:13;10.73;;;4.93;;
19891;SDS011;10108;50.142;8.724;2022-10-23T15:45:40;7.10;;;4.78;;
19891;SDS011;10108;50.142;8.724;2022-10-23T15:48:07;9.55;;;5.03;;
19891;SDS011;10108;50.142;8.724;2022-10-23T15:50:34;7.65;;;5.00;;
19891;SDS011;10108;50.142;8.724;2022-10-23T15:53:01;9.55;;;5.25;;
19891;SDS011;10108;50.142;8.724;2022-10-23T15:55:28;8.73;;;4.60;;
19891;SDS011;10108;50.142;8.724;2022-10-23T15:57:54;10.55;;;4.90;;
19891;SDS011;10108;50.142;8.724;2022-10-23T16:00:26;12.10;;;5.20;;
19891;SDS011;10108;50.142;8.724;2022-10-23T16:02:52;7.88;;;4.75;;
19891;SDS011;10108;50.142;8.724;2022-10-23T16:05:18;6.97;;;4.78;;
19891;SDS011;10108;50.142;8.724;2022-10-23T16:07:44;10.60;;;4.85;;
19891;SDS011;10108;50.142;8.724;2022-10-23T16:10:11;11.70;;;5.35;;
19891;SDS011;10108;50.142;8.724;2022-10-23T16:12:37;13.52;;;4.85;;
19891;SDS011;10108;50.142;8.724;2022-10-23T16:15:03;9.98;;;4.90;;
19891;SDS011;10108;50.142;8.724;2022-10-23T16:17:32;8.20;;;4.60;;
19891;SDS011;10108;50.142;8.724;2022-10-23T16:19:58;7.60;;;4.50;;
19891;SDS011;10108;50.142;8.724;2022-10-23T16:22:24;11.93;;;5.10;;
19891;SDS011;10108;50.142;8.724;2022-10-23T16:24:51;10.98;;;5.07;;
19891;SDS011;10108;50.142;8.724;2022-10-23T16:27:17;12.77;;;5.20;;
19891;SDS011;10108;50.142;8.724;2022-10-23T16:29:43;10.55;;;4.93;;
19891;SDS011;10108;50.142;8.724;2022-10-23T16:32:10;12.90;;;5.03;;
19891;SDS011;10108;50.142;8.724;2022-10-23T16:34:36;13.52;;;5.20;;
19891;SDS011;10108;50.142;8.724;2022-10-23T16:37:02;12.25;;;5.97;;
19891;SDS011;10108;50.142;8.724;2022-10-23T16:39:36;9.80;;;5.10;;
19891;SDS011;10108;50.142;8.724;2022-10-23T16:42:21;10.02;;;5.47;;
19891;SDS011;10108;50.142;8.724;2022-10-23T16:45:20;8.02;;;5.30;;
19891;SDS011;10108;50.142;8.724;2022-10-23T16:47:46;8.63;;;5.30;;
19891;SDS011;10108;50.142;8.724;2022-10-23T16:50:12;8.85;;;5.50;;
19891;SDS011;10108;50.142;8.724;2022-10-23T16:52:40;8.73;;;5.68;;
19891;SDS011;10108;50.142;8.724;2022-10-23T16:55:06;9.90;;;5.63;;
19891;SDS011;10108;50.142;8.724;2022-10-23T16:57:34;9.27;;;5.32;;
19891;SDS011;10108;50.142;8.724;2022-10-23T17:00:00;8.30;;;5.32;;
19891;SDS011;10108;50.142;8.724;2022-10-23T17:02:26;8.63;;;5.40;;
19891;SDS011;10108;50.142;8.724;2022-10-23T17:04:53;10.63;;;5.43;;
19891;SDS011;10108;50.142;8.724;2022-10-23T17:07:19;10.82;;;5.60;;